Time;durP1;ratioP1;P1;durP2;ratioP2;P2;SDS_P1;SDS_P2;PMS_P1;PMS_P2;Temp;Humidity;BMP_temperature;BMP_pressure;BME280_temperature;BME280_humidity;BME280_pressure;Samples;Min_cycle;Max_cycle;Signal;HPM_P1;HPM_P2
2023/04/05 00:01:08;;;;;;;9.70;4.22;;;0.10;99.90;;;;;;7278709;32;20239;-55
2023/04/05 00:05:11;;;;;;;11.27;4.40;;;0.10;99.90;;;;;;7280540;32;20212;-54
2023/04/05 00:09:13;;;;;;;8.27;4.68;;;0.00;99.90;;;;;;7279718;32;20112;-54
2023/04/05 00:13:15;;;;;;;8.77;4.85;;;0.00;99.90;;;;;;7292899;32;20213;-54
2023/04/05 00:17:17;;;;;;;10.07;4.82;;;0.00;99.90;;;;;;7279952;32;20124;-54
2023/04/05 00:21:22;;;;;;;8.65;5.30;;;0.00;99.90;;;;;;7282190;32;20116;-54
2023/04/05 00:25:25;;;;;;;8.77;4.90;;;-0.10;99.90;;;;;;7279581;32;20647;-54
2023/04/05 00:29:27;;;;;;;8.93;4.97;;;-0.10;99.90;;;;;;7280588;32;20586;-54
2023/04/05 00:33:28;;;;;;;9.50;4.72;;;-0.20;99.90;;;;;;7283899;32;20628;-54
2023/04/05 00:37:30;;;;;;;10.25;5.55;;;-0.20;99.90;;;;;;7277409;32;20108;-55
2023/04/05 00:41:32;;;;;;;9.77;5.30;;;-0.20;99.90;;;;;;7274633;32;20721;-55
2023/04/05 00:45:34;;;;;;;9.90;5.60;;;-0.20;99.90;;;;;;7281631;32;20153;-54
2023/04/05 00:49:37;;;;;;;9.77;5.47;;;-0.10;99.90;;;;;;7274372;32;20247;-55
2023/04/05 00:53:39;;;;;;;10.05;5.37;;;-0.10;99.90;;;;;;7280184;32;20168;-55
2023/04/05 00:57:44;;;;;;;9.35;5.28;;;-0.20;99.90;;;;;;7282185;32;20618;-55
2023/04/05 01:01:53;;;;;;;10.57;5.62;;;-0.20;99.90;;;;;;7278418;32;20219;-55
2023/04/05 01:06:23;;;;;;;11.85;6.37;;;-0.10;99.90;;;;;;7274225;32;20153;-55
2023/04/05 01:10:33;;;;;;;8.73;4.90;;;-0.10;99.90;;;;;;7268335;32;20108;-54
2023/04/05 01:14:49;;;;;;;9.40;5.03;;;-0.10;99.90;;;;;;7280300;32;20217;-55
2023/04/05 01:18:55;;;;;;;8.85;5.15;;;-0.20;99.90;;;;;;7275637;32;20223;-54
2023/04/05 01:23:30;;;;;;;10.48;5.85;;;-0.20;99.90;;;;;;7275287;32;20107;-55
2023/04/05 01:27:47;;;;;;;9.57;5.53;;;-0.20;99.90;;;;;;7286808;32;20138;-55
2023/04/05 01:32:18;;;;;;;10.50;5.30;;;-0.20;99.90;;;;;;7280073;32;20166;-55
2023/04/05 01:36:32;;;;;;;10.70;5.25;;;-0.20;99.90;;;;;;7276055;32;20168;-55
2023/04/05 01:40:35;;;;;;;9.00;5.20;;;-0.20;99.90;;;;;;7280592;32;20120;-55
2023/04/05 01:44:37;;;;;;;11.00;5.28;;;-0.30;99.90;;;;;;7276991;32;20511;-56
2023/04/05 01:48:39;;;;;;;10.27;5.70;;;-0.30;99.90;;;;;;7259967;32;20325;-55
2023/04/05 01:52:41;;;;;;;9.55;5.20;;;-0.30;99.90;;;;;;7280622;32;20561;-55
2023/04/05 01:56:42;;;;;;;10.80;5.03;;;-0.30;99.90;;;;;;7275757;32;20147;-55
2023/04/05 02:00:44;;;;;;;11.32;5.37;;;-0.30;99.90;;;;;;7276931;32;20186;-54
2023/04/05 02:04:46;;;;;;;11.65;5.30;;;-0.30;99.90;;;;;;7285322;32;20223;-54
2023/04/05 02:08:48;;;;;;;9.32;5.35;;;-0.30;99.90;;;;;;7291138;32;20124;-55
2023/04/05 02:12:50;;;;;;;9.60;5.18;;;-0.40;99.90;;;;;;7287653;32;20108;-55
2023/04/05 02:16:55;;;;;;;9.30;4.80;;;-0.40;99.90;;;;;;7278077;32;20131;-55
2023/04/05 02:21:02;;;;;;;9.32;5.50;;;-0.40;99.90;;;;;;7286238;32;20136;-55
2023/04/05 02:25:04;;;;;;;10.60;5.62;;;-0.40;99.90;;;;;;7295439;32;20548;-54
2023/04/05 02:29:06;;;;;;;10.55;4.90;;;-0.50;99.90;;;;;;7291610;32;20646;-53
2023/04/05 02:33:09;;;;;;;7.75;4.87;;;-0.50;99.90;;;;;;7286400;32;20108;-55
2023/04/05 02:37:11;;;;;;;7.68;5.53;;;-0.50;99.90;;;;;;7283758;32;22669;-54
2023/04/05 02:41:12;;;;;;;9.23;5.37;;;-0.60;99.90;;;;;;7280039;32;20205;-55
2023/04/05 02:45:14;;;;;;;9.63;5.40;;;-0.60;99.90;;;;;;7283347;32;20194;-54
2023/04/05 02:49:16;;;;;;;12.65;5.90;;;-0.60;99.90;;;;;;7269281;32;20210;-54
2023/04/05 02:53:18;;;;;;;9.70;5.72;;;-0.60;99.90;;;;;;7282997;32;20172;-56
2023/04/05 02:57:20;;;;;;;9.88;5.68;;;-0.70;99.90;;;;;;7283989;32;20176;-54
2023/04/05 03:01:22;;;;;;;8.52;5.10;;;-0.70;99.90;;;;;;7296082;32;20103;-54
2023/04/05 03:05:24;;;;;;;10.57;5.47;;;-0.70;99.90;;;;;;7282269;32;20132;-55
2023/04/05 03:09:26;;;;;;;13.27;5.03;;;-0.70;99.90;;;;;;7281921;32;20182;-55
2023/04/05 03:13:28;;;;;;;10.27;4.68;;;-0.80;99.90;;;;;;7283608;32;20180;-54
2023/04/05 03:17:30;;;;;;;9.93;4.95;;;-0.80;99.90;;;;;;7282275;32;20144;-55
2023/04/05 03:21:32;;;;;;;10.55;5.25;;;-0.80;99.90;;;;;;7278710;32;20261;-55
2023/04/05 03:25:36;;;;;;;8.68;4.95;;;-0.90;99.90;;;;;;7285895;32;20200;-54
2023/04/05 03:29:37;;;;;;;9.98;5.00;;;-0.90;99.90;;;;;;7282495;32;20132;-53
2023/04/05 03:33:39;;;;;;;9.63;4.60;;;-0.90;99.90;;;;;;7288168;32;20270;-54
2023/04/05 03:37:41;;;;;;;12.55;5.65;;;-0.90;99.90;;;;;;7284600;32;20584;-53
2023/04/05 03:41:42;;;;;;;10.02;5.18;;;-1.00;99.90;;;;;;7269915;32;20555;-53
2023/04/05 03:45:44;;;;;;;9.88;4.85;;;-1.00;99.90;;;;;;7280702;32;20142;-54
2023/04/05 03:49:46;;;;;;;8.52;4.78;;;-1.00;99.90;;;;;;7276578;32;20195;-55
2023/04/05 03:53:49;;;;;;;9.20;5.05;;;-1.00;99.90;;;;;;7289889;32;20170;-55
2023/04/05 03:57:52;;;;;;;8.88;5.15;;;-1.10;99.90;;;;;;7278974;32;20223;-55
2023/04/05 04:01:54;;;;;;;8.80;5.40;;;-1.00;99.90;;;;;;7282083;32;20324;-55
2023/04/05 04:05:56;;;;;;;7.30;4.93;;;-1.10;99.90;;;;;;7281762;32;20259;-55
2023/04/05 04:09:58;;;;;;;11.68;5.32;;;-1.10;99.90;;;;;;7277470;32;20620;-55
2023/04/05 04:14:00;;;;;;;8.18;5.00;;;-1.10;99.90;;;;;;7281062;32;20143;-55
2023/04/05 04:18:02;;;;;;;7.82;5.00;;;-1.10;99.90;;;;;;7262748;32;20160;-55
2023/04/05 04:22:06;;;;;;;9.00;5.05;;;-1.20;99.90;;;;;;7280839;32;20161;-55
2023/04/05 04:26:08;;;;;;;8.68;4.72;;;-1.10;99.90;;;;;;7277122;32;20174;-56
2023/04/05 04:30:12;;;;;;;8.93;4.80;;;-1.20;99.90;;;;;;7278798;32;20156;-54
2023/04/05 04:34:17;;;;;;;9.57;5.05;;;-1.20;99.90;;;;;;7284353;32;20112;-54
2023/04/05 04:38:19;;;;;;;12.37;5.68;;;-1.20;99.90;;;;;;7278304;32;20505;-54
2023/04/05 04:42:21;;;;;;;8.77;5.18;;;-1.20;99.90;;;;;;7275065;32;20119;-54
2023/04/05 04:46:26;;;;;;;9.13;4.80;;;-1.20;99.90;;;;;;7274095;32;20165;-54
2023/04/05 04:50:27;;;;;;;9.32;5.03;;;-1.20;99.90;;;;;;7276412;32;20194;-55
2023/04/05 04:54:29;;;;;;;10.10;5.20;;;-1.30;99.90;;;;;;7274596;32;20154;-55
2023/04/05 04:58:31;;;;;;;8.68;4.75;;;-1.30;99.90;;;;;;7276827;32;20120;-54
2023/04/05 05:02:33;;;;;;;8.02;4.85;;;-1.30;99.90;;;;;;7274709;32;20104;-56
2023/04/05 05:06:35;;;;;;;9.82;4.68;;;-1.30;99.90;;;;;;7271022;32;20116;-55
2023/04/05 05:10:36;;;;;;;10.93;5.82;;;-1.40;99.90;;;;;;7276327;32;20199;-60
2023/04/05 05:14:38;;;;;;;13.15;7.65;;;-1.40;99.90;;;;;;7274911;32;20135;-55
2023/04/05 05:18:41;;;;;;;8.32;4.87;;;-1.40;99.90;;;;;;7274115;32;20215;-56
2023/04/05 05:22:45;;;;;;;9.85;5.30;;;-1.30;99.90;;;;;;7272647;32;20625;-55
2023/04/05 05:26:47;;;;;;;10.85;5.95;;;-1.30;99.90;;;;;;7275311;32;20259;-56
2023/04/05 05:30:48;;;;;;;8.30;5.10;;;-1.30;99.90;;;;;;7273896;32;20198;-57
2023/04/05 05:34:50;;;;;;;8.13;4.93;;;-1.30;99.90;;;;;;7274578;32;20326;-55
2023/04/05 05:38:53;;;;;;;11.10;5.60;;;-1.30;99.90;;;;;;7272608;32;20244;-55
2023/04/05 05:42:55;;;;;;;10.52;5.70;;;-1.30;99.90;;;;;;7276019;32;20186;-56
2023/04/05 05:46:57;;;;;;;10.13;5.47;;;-1.30;99.90;;;;;;7277214;32;20306;-55
2023/04/05 05:51:00;;;;;;;9.82;5.25;;;-1.20;99.90;;;;;;7275520;32;20116;-56
2023/04/05 05:55:03;;;;;;;9.25;5.95;;;-1.10;99.90;;;;;;7272627;32;20824;-55
2023/04/05 05:59:05;;;;;;;13.02;7.85;;;-1.10;99.90;;;;;;7279968;32;20486;-55
2023/04/05 06:03:08;;;;;;;9.20;5.93;;;-1.00;99.90;;;;;;7277585;32;20229;-55
2023/04/05 06:07:11;;;;;;;12.70;6.05;;;-1.00;99.90;;;;;;7278015;32;20138;-55
2023/04/05 06:11:20;;;;;;;11.88;6.05;;;-1.00;99.90;;;;;;7270829;32;20623;-55
2023/04/05 06:15:22;;;;;;;9.18;5.32;;;-0.80;99.90;;;;;;7269912;32;20238;-55
2023/04/05 06:19:24;;;;;;;9.95;5.80;;;-0.70;99.90;;;;;;7275094;32;20278;-55
2023/04/05 06:23:25;;;;;;;10.18;5.95;;;-0.70;99.90;;;;;;7271938;32;20283;-56
2023/04/05 06:27:27;;;;;;;7.95;5.30;;;-0.60;99.90;;;;;;7276368;32;20131;-56
2023/04/05 06:31:34;;;;;;;8.25;5.25;;;-0.50;99.90;;;;;;7272223;32;20107;-55
2023/04/05 06:35:36;;;;;;;14.98;6.30;;;-0.50;99.90;;;;;;7277705;32;20116;-55
2023/04/05 06:39:38;;;;;;;11.20;5.85;;;-0.40;99.90;;;;;;7275895;32;20229;-57
2023/04/05 06:43:39;;;;;;;10.63;6.18;;;-0.20;99.90;;;;;;7286161;32;20591;-56
2023/04/05 06:47:41;;;;;;;13.15;6.00;;;-0.10;99.90;;;;;;7278860;32;20175;-56
2023/04/05 06:51:43;;;;;;;10.60;5.80;;;-0.10;99.90;;;;;;7276805;32;20154;-55
2023/04/05 06:55:49;;;;;;;13.60;6.35;;;0.00;99.90;;;;;;7282204;32;20139;-56
2023/04/05 06:59:52;;;;;;;10.57;5.82;;;0.20;99.90;;;;;;7279430;32;20116;-55
2023/04/05 07:03:54;;;;;;;11.77;6.53;;;0.30;99.90;;;;;;7269262;32;20306;-55
2023/04/05 07:07:56;;;;;;;11.55;7.18;;;0.50;99.90;;;;;;7274495;32;20119;-55
2023/04/05 07:12:00;;;;;;;8.88;6.20;;;0.70;99.90;;;;;;7271813;32;20271;-55
2023/04/05 07:16:02;;;;;;;10.48;6.65;;;0.90;99.90;;;;;;7270266;32;20136;-55
2023/04/05 07:20:08;;;;;;;9.85;6.18;;;1.10;99.90;;;;;;7272707;32;20138;-56
2023/04/05 07:24:10;;;;;;;8.50;5.70;;;1.30;99.90;;;;;;7273840;32;20148;-55
2023/04/05 07:28:11;;;;;;;8.75;5.28;;;1.60;99.90;;;;;;7271600;32;20240;-56
2023/04/05 07:32:13;;;;;;;7.47;4.03;;;1.90;99.90;;;;;;7277976;32;20209;-57
2023/04/05 07:36:15;;;;;;;10.07;4.45;;;2.30;99.90;;;;;;7277406;32;20115;-57
2023/04/05 07:40:17;;;;;;;7.43;4.35;;;2.40;99.90;;;;;;7275961;32;20130;-57
2023/04/05 07:44:19;;;;;;;9.05;4.03;;;2.80;99.90;;;;;;7269788;32;20628;-57
2023/04/05 07:48:21;;;;;;;6.95;3.70;;;3.20;99.90;;;;;;7276915;32;20576;-57
2023/04/05 07:52:22;;;;;;;8.45;3.62;;;3.90;99.90;;;;;;7283672;32;20124;-56
2023/04/05 07:56:24;;;;;;;9.57;3.75;;;4.60;99.90;;;;;;7280233;32;20174;-55
2023/04/05 08:00:26;;;;;;;5.82;3.62;;;5.00;99.90;;;;;;7277068;32;20172;-55
2023/04/05 08:04:28;;;;;;;5.00;3.83;;;6.00;99.90;;;;;;7276062;32;20230;-56
2023/04/05 08:08:29;;;;;;;7.32;3.53;;;6.80;99.90;;;;;;7278357;32;20229;-56
2023/04/05 08:12:32;;;;;;;7.28;3.78;;;7.50;99.90;;;;;;7278629;32;20337;-56
2023/04/05 08:16:34;;;;;;;5.72;3.90;;;8.60;99.90;;;;;;7280026;32;20182;-55
2023/04/05 08:20:38;;;;;;;8.25;3.80;;;9.00;99.90;;;;;;7279981;32;20116;-56
2023/04/05 08:24:40;;;;;;;6.87;4.05;;;9.40;99.90;;;;;;7266969;32;20116;-56
2023/04/05 08:28:42;;;;;;;7.40;4.12;;;9.30;99.90;;;;;;7277745;32;20126;-56
2023/04/05 08:32:44;;;;;;;5.68;3.90;;;9.90;99.90;;;;;;7282969;32;20222;-56
2023/04/05 08:36:46;;;;;;;6.47;4.20;;;10.20;96.40;;;;;;7279581;32;20150;-56
2023/04/05 08:40:49;;;;;;;6.62;3.90;;;9.80;95.90;;;;;;7281161;32;20126;-55
2023/04/05 08:44:51;;;;;;;7.50;3.65;;;9.90;93.60;;;;;;7270661;32;20115;-55
2023/04/05 08:48:53;;;;;;;6.05;3.53;;;10.20;95.70;;;;;;7271264;32;20171;-55
2023/04/05 08:52:55;;;;;;;7.18;3.65;;;10.60;97.40;;;;;;7284248;32;20180;-56
2023/04/05 08:56:58;;;;;;;5.45;4.28;;;10.80;93.70;;;;;;7278557;32;20172;-55
2023/04/05 09:01:02;;;;;;;6.57;3.92;;;10.90;91.20;;;;;;7282473;32;20332;-56
2023/04/05 09:05:14;;;;;;;7.65;4.25;;;10.80;90.70;;;;;;7282691;32;20134;-56
2023/04/05 09:09:27;;;;;;;7.15;4.28;;;10.90;92.80;;;;;;7278982;32;21106;-56
2023/04/05 09:13:30;;;;;;;5.47;3.97;;;11.00;90.60;;;;;;7282802;32;20434;-56
2023/04/05 09:17:33;;;;;;;5.90;4.00;;;12.10;90.00;;;;;;7282672;32;20104;-57
2023/04/05 09:22:04;;;;;;;5.68;3.97;;;12.30;88.30;;;;;;7277871;32;20268;-57
2023/04/05 09:26:20;;;;;;;8.05;3.92;;;13.90;76.60;;;;;;7281417;32;20151;-56
2023/04/05 09:30:23;;;;;;;7.05;3.90;;;14.40;70.10;;;;;;7276236;32;20187;-56
2023/04/05 09:34:25;;;;;;;8.77;4.90;;;14.20;67.00;;;;;;7284423;32;20496;-56
2023/04/05 09:38:47;;;;;;;6.05;4.72;;;13.00;66.10;;;;;;7282440;32;20345;-57
2023/04/05 09:42:50;;;;;;;9.30;4.87;;;12.30;70.90;;;;;;7276096;32;20185;-57
2023/04/05 09:46:51;;;;;;;9.23;3.90;;;13.00;70.60;;;;;;7275714;32;20451;-56
2023/04/05 09:51:04;;;;;;;4.50;3.83;;;14.50;65.70;;;;;;7271472;32;20270;-56
2023/04/05 09:55:25;;;;;;;7.03;3.60;;;15.90;57.50;;;;;;7277685;32;20200;-57
2023/04/05 09:59:28;;;;;;;5.78;4.05;;;15.80;52.30;;;;;;7260715;32;20184;-57
2023/04/05 10:03:29;;;;;;;4.90;3.92;;;16.40;56.10;;;;;;7275031;32;20139;-57
2023/04/05 10:07:32;;;;;;;6.60;4.28;;;17.50;56.90;;;;;;7257870;32;20124;-57
2023/04/05 10:11:35;;;;;;;7.18;4.12;;;18.60;48.90;;;;;;7275555;32;20218;-56
2023/04/05 10:15:39;;;;;;;6.47;5.05;;;19.50;48.10;;;;;;7271956;32;20126;-56
2023/04/05 10:20:12;;;;;;;6.93;4.60;;;19.00;45.20;;;;;;7271612;32;20124;-56
2023/04/05 10:24:35;;;;;;;6.80;4.00;;;19.20;48.70;;;;;;7274764;32;20146;-56
2023/04/05 10:28:44;;;;;;;8.07;4.45;;;20.30;43.30;;;;;;7274999;32;20138;-56
2023/04/05 10:33:17;;;;;;;6.18;4.43;;;19.20;45.70;;;;;;7277575;32;20793;-56
2023/04/05 10:37:35;;;;;;;5.65;4.60;;;18.90;48.00;;;;;;7275521;32;20291;-55
2023/04/05 10:41:46;;;;;;;4.97;3.50;;;18.60;46.40;;;;;;7274630;32;20134;-56
2023/04/05 10:45:50;;;;;;;7.03;4.28;;;20.10;48.80;;;;;;7273142;32;20517;-56
2023/04/05 10:49:55;;;;;;;5.95;4.12;;;20.20;43.60;;;;;;7277189;32;20120;-56
2023/04/05 10:53:59;;;;;;;7.85;4.32;;;20.20;46.70;;;;;;7273555;32;20111;-55
2023/04/05 10:58:01;;;;;;;6.47;4.30;;;19.90;44.70;;;;;;7279558;32;20135;-56
2023/04/05 11:02:03;;;;;;;7.87;4.10;;;20.10;43.20;;;;;;7263630;32;20316;-56
2023/04/05 11:06:28;;;;;;;5.45;3.95;;;20.10;42.50;;;;;;7273855;32;20116;-56
2023/04/05 11:10:32;;;;;;;7.47;4.10;;;20.20;43.80;;;;;;7273834;32;20274;-56
2023/04/05 11:14:40;;;;;;;5.62;4.70;;;20.60;44.10;;;;;;7277262;32;20135;-56
2023/04/05 11:18:47;;;;;;;5.53;4.05;;;20.00;42.20;;;;;;7256994;32;20289;-57
2023/04/05 11:22:53;;;;;;;5.78;4.72;;;19.30;42.10;;;;;;7274201;32;20108;-56
2023/04/05 11:26:56;;;;;;;8.60;5.17;;;18.30;42.80;;;;;;7281397;32;20219;-56
2023/04/05 11:31:15;;;;;;;7.80;5.35;;;18.00;43.80;;;;;;7276242;32;20139;-57
2023/04/05 11:35:23;;;;;;;9.35;5.40;;;17.00;45.80;;;;;;7278962;32;20120;-56
2023/04/05 11:39:26;;;;;;;7.85;5.05;;;17.00;44.20;;;;;;7280233;32;20498;-55
2023/04/05 11:43:29;;;;;;;6.32;4.62;;;17.50;44.50;;;;;;7277932;32;20135;-56
2023/04/05 11:47:30;;;;;;;8.43;5.53;;;18.60;44.30;;;;;;7276054;32;20166;-55
2023/04/05 11:51:32;;;;;;;8.27;6.12;;;18.20;45.00;;;;;;7280833;32;20499;-57
2023/04/05 11:55:34;;;;;;;9.07;6.40;;;18.20;45.90;;;;;;7282466;32;20104;-57
2023/04/05 11:59:36;;;;;;;6.32;5.28;;;18.80;45.50;;;;;;7275266;32;20154;-56
2023/04/05 12:03:38;;;;;;;6.35;5.65;;;19.00;43.60;;;;;;7280091;32;20334;-56
2023/04/05 12:07:40;;;;;;;8.45;5.15;;;19.40;44.00;;;;;;7274524;32;20433;-55
2023/04/05 12:11:41;;;;;;;8.02;6.07;;;19.20;42.40;;;;;;7280857;32;20172;-55
2023/04/05 12:15:43;;;;;;;8.88;6.25;;;19.10;44.10;;;;;;7268350;32;20124;-56
2023/04/05 12:19:45;;;;;;;6.50;5.30;;;19.90;41.70;;;;;;7276248;32;20150;-57
2023/04/05 12:23:48;;;;;;;10.35;5.30;;;19.90;45.10;;;;;;7266846;32;20279;-56
2023/04/05 12:27:50;;;;;;;6.07;5.05;;;20.70;43.20;;;;;;7282864;32;20180;-56
2023/04/05 12:31:53;;;;;;;6.53;4.97;;;20.00;41.40;;;;;;7278191;32;20096;-59
2023/04/05 12:35:56;;;;;;;7.60;5.18;;;19.50;41.20;;;;;;7265890;32;20132;-59
2023/04/05 12:40:02;;;;;;;6.87;5.37;;;20.00;40.70;;;;;;7265496;32;20130;-58
2023/04/05 12:44:27;;;;;;;8.63;6.03;;;19.60;41.00;;;;;;7273635;32;20596;-57
2023/04/05 12:48:29;;;;;;;8.57;5.18;;;18.90;40.90;;;;;;7281238;32;20210;-58
2023/04/05 12:52:30;;;;;;;5.68;4.60;;;19.80;41.10;;;;;;7280127;32;20495;-59
2023/04/05 12:56:32;;;;;;;6.87;5.25;;;20.90;41.80;;;;;;7278769;32;20337;-56
2023/04/05 13:00:34;;;;;;;7.57;5.70;;;21.50;37.40;;;;;;7272850;32;20120;-56
2023/04/05 13:04:36;;;;;;;5.18;4.62;;;19.80;38.40;;;;;;7281419;32;20290;-56
2023/04/05 13:08:37;;;;;;;10.15;5.22;;;19.60;41.30;;;;;;7273348;32;20694;-57
2023/04/05 13:12:39;;;;;;;9.30;5.75;;;20.30;40.90;;;;;;7286929;32;20135;-55
2023/04/05 13:16:41;;;;;;;6.53;5.10;;;20.50;39.60;;;;;;7267639;32;20268;-56
2023/04/05 13:20:43;;;;;;;6.78;4.72;;;19.80;40.20;;;;;;7281607;32;20132;-57
2023/04/05 13:24:45;;;;;;;8.07;4.72;;;18.90;43.20;;;;;;7282654;32;20541;-56
2023/04/05 13:28:47;;;;;;;6.62;5.05;;;19.80;41.70;;;;;;7287648;32;20132;-57
2023/04/05 13:32:49;;;;;;;5.25;4.75;;;19.60;41.70;;;;;;7288162;32;20280;-56
2023/04/05 13:36:50;;;;;;;9.50;5.97;;;19.50;43.50;;;;;;7279677;32;20270;-57
2023/04/05 13:40:52;;;;;;;8.05;5.32;;;19.60;42.10;;;;;;7282242;32;20157;-56
2023/04/05 13:44:54;;;;;;;8.68;5.43;;;20.50;40.70;;;;;;7285020;32;20267;-56
2023/04/05 13:48:56;;;;;;;6.82;5.87;;;20.00;40.80;;;;;;7264491;32;20194;-56
2023/04/05 13:52:58;;;;;;;8.63;5.55;;;19.20;40.60;;;;;;7284044;32;20445;-56
2023/04/05 13:57:00;;;;;;;8.90;6.25;;;19.20;41.50;;;;;;7284289;32;20821;-57
2023/04/05 14:01:02;;;;;;;7.90;6.57;;;18.30;41.20;;;;;;7281218;32;20167;-56
2023/04/05 14:05:05;;;;;;;8.75;7.12;;;18.40;42.10;;;;;;7276929;32;20163;-58
2023/04/05 14:09:07;;;;;;;8.45;5.78;;;19.50;41.80;;;;;;7288281;32;20227;-58
2023/04/05 14:13:11;;;;;;;9.82;5.72;;;20.50;39.40;;;;;;7285999;32;20148;-57
2023/04/05 14:17:13;;;;;;;8.23;5.85;;;20.50;39.90;;;;;;7278535;32;20112;-57
2023/04/05 14:21:15;;;;;;;8.40;5.90;;;19.00;40.80;;;;;;7286394;32;20183;-57
2023/04/05 14:25:17;;;;;;;8.40;5.55;;;19.40;41.30;;;;;;7283732;32;20578;-57
2023/04/05 14:29:19;;;;;;;9.23;5.55;;;20.30;40.40;;;;;;7279988;32;20202;-56
2023/04/05 14:33:22;;;;;;;7.55;6.10;;;19.80;41.00;;;;;;7275322;32;20115;-56
2023/04/05 14:37:24;;;;;;;7.28;6.12;;;20.30;39.50;;;;;;7276494;32;20165;-56
2023/04/05 14:41:26;;;;;;;10.02;6.00;;;19.40;40.50;;;;;;7278974;32;20124;-57
2023/04/05 14:45:28;;;;;;;8.75;5.90;;;18.20;41.80;;;;;;7283840;32;20130;-56
2023/04/05 14:49:30;;;;;;;7.30;6.45;;;18.50;42.20;;;;;;7277607;32;20143;-56
2023/04/05 14:53:32;;;;;;;5.90;5.30;;;17.70;42.40;;;;;;7273012;32;20264;-56
2023/04/05 14:57:34;;;;;;;7.90;6.10;;;16.10;46.20;;;;;;7280819;32;20168;-56
2023/04/05 15:01:36;;;;;;;7.68;6.30;;;15.50;47.50;;;;;;7266450;32;20205;-56
2023/04/05 15:05:38;;;;;;;9.70;6.55;;;14.50;47.60;;;;;;7279002;32;20104;-57
2023/04/05 15:09:40;;;;;;;10.73;6.60;;;14.30;51.40;;;;;;7280537;32;20144;-56
2023/04/05 15:13:41;;;;;;;8.88;6.07;;;13.90;51.50;;;;;;7280521;32;20137;-56
2023/04/05 15:17:43;;;;;;;11.40;6.50;;;13.50;50.40;;;;;;7283001;32;20633;-56
2023/04/05 15:21:45;;;;;;;10.93;6.65;;;13.30;50.60;;;;;;7266330;32;20210;-57
2023/04/05 15:25:47;;;;;;;9.07;5.90;;;13.20;52.70;;;;;;7277725;32;20140;-58
2023/04/05 15:29:49;;;;;;;8.45;5.78;;;12.90;52.60;;;;;;7260734;32;20273;-58
2023/04/05 15:33:51;;;;;;;11.00;6.25;;;12.70;53.40;;;;;;7262823;32;20173;-57
2023/04/05 15:37:53;;;;;;;8.50;5.85;;;12.80;53.50;;;;;;7273700;32;20130;-56
2023/04/05 15:41:58;;;;;;;10.02;5.95;;;12.80;50.80;;;;;;7279327;32;20131;-57
2023/04/05 15:46:00;;;;;;;10.98;6.03;;;12.40;53.80;;;;;;7268501;32;20136;-57
2023/04/05 15:50:02;;;;;;;8.02;5.50;;;12.10;53.90;;;;;;7279707;32;20302;-57
2023/04/05 15:54:04;;;;;;;10.85;5.90;;;12.10;53.00;;;;;;7278583;32;20511;-57
2023/04/05 15:58:06;;;;;;;11.32;6.57;;;12.20;52.20;;;;;;7284679;32;20232;-56
2023/04/05 16:02:08;;;;;;;12.57;7.15;;;12.20;52.80;;;;;;7283322;32;20155;-56
2023/04/05 16:06:10;;;;;;;10.38;6.72;;;12.00;54.40;;;;;;7284610;32;20361;-57
2023/04/05 16:10:12;;;;;;;8.95;6.20;;;12.10;53.40;;;;;;7279752;32;20135;-58
2023/04/05 16:14:14;;;;;;;9.50;6.03;;;11.90;53.00;;;;;;7281329;32;20215;-58
2023/04/05 16:18:18;;;;;;;12.30;6.68;;;11.70;56.20;;;;;;7279631;32;20286;-58
2023/04/05 16:22:20;;;;;;;12.98;6.30;;;11.80;53.90;;;;;;7272584;32;20205;-57
2023/04/05 16:26:22;;;;;;;10.95;6.53;;;11.60;52.40;;;;;;7282829;32;20574;-57
2023/04/05 16:30:24;;;;;;;11.98;6.25;;;11.50;52.60;;;;;;7277379;32;20624;-57
2023/04/05 16:34:26;;;;;;;12.50;7.12;;;11.50;55.20;;;;;;7273215;32;20711;-57
2023/04/05 16:38:28;;;;;;;16.83;11.18;;;11.10;56.10;;;;;;7278268;32;20250;-56
2023/04/05 16:42:30;;;;;;;10.88;6.93;;;11.20;55.40;;;;;;7272434;32;20214;-57
2023/04/05 16:46:32;;;;;;;10.00;6.90;;;10.90;56.50;;;;;;7281102;32;20209;-56
2023/04/05 16:50:34;;;;;;;10.07;6.80;;;11.00;56.80;;;;;;7274810;32;20603;-57
2023/04/05 16:54:36;;;;;;;11.23;7.62;;;11.10;55.80;;;;;;7276746;32;20138;-56
2023/04/05 16:58:37;;;;;;;17.70;7.62;;;10.90;58.10;;;;;;7291395;32;20618;-56
2023/04/05 17:02:39;;;;;;;11.65;7.03;;;10.90;56.70;;;;;;7280102;32;20144;-56
2023/04/05 17:06:41;;;;;;;12.02;6.50;;;10.70;57.00;;;;;;7271899;32;20274;-56
2023/04/05 17:10:43;;;;;;;9.48;5.75;;;10.40;61.10;;;;;;7262459;32;20257;-57
2023/04/05 17:14:45;;;;;;;13.38;6.65;;;10.30;58.70;;;;;;7279162;32;20176;-56
2023/04/05 17:18:47;;;;;;;13.18;6.72;;;10.20;58.30;;;;;;7280596;32;20161;-56
2023/04/05 17:22:49;;;;;;;14.80;6.25;;;10.30;59.00;;;;;;7279688;32;20620;-57
2023/04/05 17:26:51;;;;;;;10.32;6.00;;;9.90;60.50;;;;;;7273537;32;20746;-57
2023/04/05 17:30:54;;;;;;;12.63;6.90;;;9.80;62.30;;;;;;7279371;32;20167;-56
2023/04/05 17:34:56;;;;;;;12.27;6.22;;;9.80;60.20;;;;;;7281263;32;20111;-56
2023/04/05 17:38:57;;;;;;;10.55;6.15;;;9.60;59.20;;;;;;7286117;32;20182;-57
2023/04/05 17:42:59;;;;;;;10.75;6.03;;;9.50;61.10;;;;;;7276302;32;20211;-56
2023/04/05 17:47:01;;;;;;;10.65;5.90;;;9.50;60.00;;;;;;7282877;32;20186;-57
2023/04/05 17:51:10;;;;;;;8.75;5.15;;;9.30;61.90;;;;;;7264568;32;20204;-57
2023/04/05 17:55:12;;;;;;;10.05;5.65;;;9.00;63.00;;;;;;7272499;32;20132;-57
2023/04/05 17:59:14;;;;;;;6.75;4.87;;;8.80;64.50;;;;;;7269442;32;20442;-57
2023/04/05 18:03:16;;;;;;;6.97;4.32;;;8.50;65.60;;;;;;7285102;32;20491;-58
2023/04/05 18:07:18;;;;;;;8.30;4.97;;;8.30;67.40;;;;;;7276282;32;20119;-57
2023/04/05 18:11:20;;;;;;;9.18;5.10;;;8.00;71.20;;;;;;7279098;32;20605;-57
2023/04/05 18:15:22;;;;;;;13.18;5.53;;;7.80;73.20;;;;;;7285645;32;20124;-57
2023/04/05 18:19:24;;;;;;;9.18;4.80;;;7.60;76.20;;;;;;7284178;32;20488;-56
2023/04/05 18:23:26;;;;;;;10.40;5.30;;;7.30;82.50;;;;;;7264203;32;20138;-54
2023/04/05 18:27:29;;;;;;;7.87;4.90;;;7.10;86.40;;;;;;7276442;32;20139;-54
2023/04/05 18:31:31;;;;;;;8.88;4.93;;;6.90;90.30;;;;;;7277809;32;20555;-55
2023/04/05 18:35:33;;;;;;;10.40;5.30;;;6.70;93.10;;;;;;7281488;32;20285;-54
2023/04/05 18:39:35;;;;;;;8.27;4.75;;;6.50;98.90;;;;;;7274264;32;20123;-56
2023/04/05 18:43:37;;;;;;;10.10;5.40;;;6.30;99.90;;;;;;7272191;32;20394;-56
2023/04/05 18:47:39;;;;;;;10.15;5.10;;;6.10;99.90;;;;;;7268003;32;20120;-56
2023/04/05 18:51:41;;;;;;;7.28;4.47;;;5.80;99.90;;;;;;7271596;32;20198;-55
2023/04/05 18:55:42;;;;;;;11.05;4.72;;;5.70;99.90;;;;;;7277259;32;20183;-55
2023/04/05 18:59:44;;;;;;;10.40;5.30;;;5.50;99.90;;;;;;7278602;32;20158;-55
2023/04/05 19:03:47;;;;;;;13.13;4.82;;;5.30;99.90;;;;;;7273917;32;20121;-55
2023/04/05 19:07:49;;;;;;;9.90;5.28;;;5.20;99.90;;;;;;7274624;32;20391;-55
2023/04/05 19:11:52;;;;;;;7.65;4.20;;;5.00;99.90;;;;;;7270378;32;20206;-55
2023/04/05 19:15:54;;;;;;;10.25;4.85;;;4.90;99.90;;;;;;7276203;32;20250;-55
2023/04/05 19:19:56;;;;;;;12.32;5.25;;;4.70;99.90;;;;;;7261191;32;20105;-54
2023/04/05 19:23:57;;;;;;;8.38;4.75;;;4.60;99.90;;;;;;7273014;32;20122;-54
2023/04/05 19:28:00;;;;;;;9.52;5.12;;;4.30;99.90;;;;;;7272521;32;20322;-54
2023/04/05 19:32:02;;;;;;;10.07;5.07;;;4.20;99.90;;;;;;7272292;32;20179;-55
2023/04/05 19:36:04;;;;;;;9.75;4.75;;;4.00;99.90;;;;;;7271610;32;20261;-55
2023/04/05 19:40:06;;;;;;;7.15;4.53;;;3.90;99.90;;;;;;7265645;32;20142;-55
2023/04/05 19:44:12;;;;;;;9.77;5.50;;;3.90;99.90;;;;;;7286212;32;20127;-55
2023/04/05 19:48:33;;;;;;;8.85;5.50;;;3.70;99.90;;;;;;7283157;32;20155;-55
2023/04/05 19:52:46;;;;;;;12.13;4.80;;;3.50;99.90;;;;;;7277363;32;20139;-54
2023/04/05 19:56:48;;;;;;;8.80;5.10;;;3.40;99.90;;;;;;7278364;32;20142;-55
2023/04/05 20:00:54;;;;;;;8.57;4.93;;;3.40;99.90;;;;;;7259166;32;20151;-55
2023/04/05 20:04:55;;;;;;;13.00;5.75;;;3.30;99.90;;;;;;7280831;32;20108;-54
2023/04/05 20:09:06;;;;;;;11.98;5.35;;;3.20;99.90;;;;;;7279533;32;20121;-54
2023/04/05 20:13:08;;;;;;;10.38;4.85;;;3.10;99.90;;;;;;7279866;32;20100;-54
2023/04/05 20:17:12;;;;;;;14.18;6.50;;;3.10;99.90;;;;;;7272430;32;20139;-56
2023/04/05 20:21:14;;;;;;;10.52;5.22;;;3.00;99.90;;;;;;7274302;32;20100;-55
2023/04/05 20:25:37;;;;;;;9.32;5.47;;;2.90;99.90;;;;;;7280668;32;20158;-55
2023/04/05 20:29:38;;;;;;;14.40;5.37;;;2.80;99.90;;;;;;7273269;32;20161;-55
2023/04/05 20:33:45;;;;;;;9.48;6.12;;;2.80;99.90;;;;;;7277187;32;20205;-54
2023/04/05 20:37:48;;;;;;;16.67;5.60;;;2.70;99.90;;;;;;7283424;32;20226;-55
2023/04/05 20:41:50;;;;;;;9.25;4.90;;;2.50;99.90;;;;;;7278711;32;20242;-55
2023/04/05 20:45:52;;;;;;;8.32;5.25;;;2.50;99.90;;;;;;7279228;32;20495;-56
2023/04/05 20:49:54;;;;;;;11.95;5.40;;;2.40;99.90;;;;;;7274430;32;20206;-56
2023/04/05 20:53:56;;;;;;;9.73;5.20;;;2.30;99.90;;;;;;7265057;32;20099;-56
2023/04/05 20:57:58;;;;;;;8.93;5.15;;;2.20;99.90;;;;;;7285024;32;20126;-56
2023/04/05 21:02:00;;;;;;;10.65;5.37;;;2.20;99.90;;;;;;7276323;32;20234;-55
2023/04/05 21:06:03;;;;;;;10.57;5.43;;;2.10;99.90;;;;;;7273951;32;20715;-55